Time;durP1;ratioP1;P1;durP2;ratioP2;P2;SDS_P1;SDS_P2;PMS_P1;PMS_P2;Temp;Humidity;BMP_temperature;BMP_pressure;BME280_temperature;BME280_humidity;BME280_pressure;Samples;Min_cycle;Max_cycle;Signal;HPM_P1;HPM_P2
2023/09/15 00:01:41;;;;;;;4.53;2.00;;;15.80;66.90;;;17.66;50.27;97892.75;5013810;28;20060;-68
2023/09/15 00:04:11;;;;;;;6.18;2.90;;;15.80;67.30;;;17.62;50.16;97896.00;5018975;28;20073;-69
2023/09/15 00:06:39;;;;;;;4.22;2.45;;;15.80;67.60;;;17.61;50.40;97897.06;5017885;28;20038;-69
2023/09/15 00:09:14;;;;;;;4.38;2.10;;;15.70;67.80;;;17.59;50.38;97893.75;5017704;28;20525;-68
2023/09/15 00:11:42;;;;;;;4.93;2.40;;;15.70;67.90;;;17.57;50.32;97895.78;5025543;28;20046;-68
2023/09/15 00:14:13;;;;;;;4.63;2.63;;;15.70;68.30;;;17.55;50.67;97901.38;5017146;28;20053;-68
2023/09/15 00:16:43;;;;;;;5.57;2.45;;;15.70;68.50;;;17.52;50.67;97905.31;5021369;28;20047;-68
2023/09/15 00:19:15;;;;;;;3.45;2.38;;;15.70;68.60;;;17.52;50.64;97902.63;5020993;28;20416;-68
2023/09/15 00:21:47;;;;;;;4.82;2.40;;;15.60;68.50;;;17.51;50.58;97894.72;5017701;28;20046;-68
2023/09/15 00:24:15;;;;;;;3.70;2.45;;;15.70;69.60;;;17.49;50.63;97894.09;5017138;28;20513;-68
2023/09/15 00:26:43;;;;;;;3.22;2.40;;;15.60;68.60;;;17.45;50.92;97888.28;5021160;28;20052;-68
2023/09/15 00:29:11;;;;;;;7.32;3.85;;;15.60;69.00;;;17.45;50.89;97895.53;5021004;28;20052;-68
2023/09/15 00:31:41;;;;;;;5.15;2.17;;;15.60;68.90;;;17.45;50.55;97884.78;5021711;28;20041;-68
2023/09/15 00:34:08;;;;;;;3.63;2.00;;;15.60;69.00;;;17.43;51.16;97884.97;5020475;28;20150;-68
2023/09/15 00:36:36;;;;;;;2.90;2.17;;;15.60;68.60;;;17.44;51.18;97881.22;5018961;27;20053;-68
2023/09/15 00:39:04;;;;;;;4.88;2.75;;;15.60;68.80;;;17.42;51.16;97885.16;5017402;28;20417;-68
2023/09/15 00:41:31;;;;;;;3.58;2.20;;;15.60;69.20;;;17.39;51.23;97885.53;5034078;28;20053;-68
2023/09/15 00:43:59;;;;;;;10.45;2.95;;;15.60;69.30;;;17.40;51.30;97887.22;5028611;28;20101;-67
2023/09/15 00:46:27;;;;;;;4.55;2.40;;;15.60;69.20;;;17.39;51.29;97882.84;5020059;28;20046;-68
2023/09/15 00:48:55;;;;;;;3.78;2.33;;;15.60;69.40;;;17.35;51.43;97881.59;5007896;28;20046;-68
2023/09/15 00:51:25;;;;;;;5.70;2.45;;;15.50;69.70;;;17.32;51.29;97880.97;5005491;28;20050;-68
2023/09/15 00:53:55;;;;;;;3.50;2.25;;;15.50;69.90;;;17.29;51.75;97873.31;5019743;28;20034;-69
2023/09/15 00:56:24;;;;;;;5.28;2.58;;;15.40;70.30;;;17.27;51.56;97886.13;5018924;28;20497;-68
2023/09/15 00:58:52;;;;;;;3.70;2.45;;;15.40;70.20;;;17.24;51.54;97889.19;5006543;28;20038;-68
2023/09/15 01:01:20;;;;;;;4.20;2.60;;;15.40;70.10;;;17.21;51.75;97876.13;5097908;27;20049;-67
2023/09/15 01:03:48;;;;;;;5.18;2.58;;;15.40;70.50;;;17.19;51.66;97880.06;5020051;28;20042;-67
2023/09/15 01:06:18;;;;;;;5.80;2.78;;;15.30;70.60;;;17.17;51.97;97876.72;5020622;28;20068;-67
2023/09/15 01:08:47;;;;;;;5.70;2.70;;;15.30;70.60;;;17.16;51.94;97875.91;5000523;28;20050;-67
2023/09/15 01:11:16;;;;;;;5.63;3.17;;;15.30;70.60;;;17.13;51.88;97874.44;5008811;28;20053;-66
2023/09/15 01:13:43;;;;;;;4.72;3.08;;;15.30;70.50;;;17.13;52.12;97869.03;5023644;28;20064;-67
2023/09/15 01:16:24;;;;;;;3.60;2.72;;;15.40;70.70;;;17.15;52.10;97865.34;5025613;28;20065;-67
2023/09/15 01:19:22;;;;;;;4.13;2.97;;;15.30;70.90;;;17.13;51.94;97866.34;4997885;28;20057;-66
2023/09/15 01:22:33;;;;;;;4.10;3.40;;;15.30;71.00;;;17.06;51.99;97870.88;5020600;28;20444;-67
2023/09/15 01:25:58;;;;;;;5.75;2.63;;;15.30;72.00;;;17.01;52.02;97856.38;5017224;28;20038;-67
2023/09/15 01:29:19;;;;;;;4.45;3.17;;;15.20;71.80;;;17.02;52.29;97855.31;5037371;28;20516;-67
2023/09/15 01:31:48;;;;;;;4.18;2.40;;;15.20;71.90;;;17.03;52.24;97849.75;5016163;28;20068;-67
2023/09/15 01:34:19;;;;;;;6.35;2.75;;;15.20;71.70;;;17.02;52.13;97858.84;5015607;28;20053;-67
2023/09/15 01:36:46;;;;;;;4.43;2.47;;;15.20;71.80;;;17.03;52.24;97865.06;5035892;28;20042;-67
2023/09/15 01:39:14;;;;;;;4.57;2.97;;;15.20;71.60;;;16.99;52.57;97855.72;5021003;28;20060;-68
2023/09/15 01:41:42;;;;;;;4.05;2.65;;;15.20;71.80;;;16.99;52.36;97859.25;5015523;28;20064;-68
2023/09/15 01:44:10;;;;;;;4.03;3.00;;;15.20;71.90;;;16.97;52.50;97855.91;5023732;28;20163;-67
2023/09/15 01:46:38;;;;;;;6.43;2.90;;;15.10;72.40;;;16.95;52.80;97867.91;5019386;28;20050;-68
2023/09/15 01:49:06;;;;;;;4.53;2.95;;;15.10;72.60;;;16.93;52.72;97860.84;5029091;28;20388;-67
2023/09/15 01:51:34;;;;;;;7.65;3.53;;;15.00;72.60;;;16.92;52.76;97858.34;5033797;28;20428;-67
2023/09/15 01:54:03;;;;;;;5.63;3.10;;;15.10;72.70;;;16.91;52.84;97865.59;5013850;28;20050;-67
2023/09/15 01:56:30;;;;;;;5.63;3.10;;;15.10;72.90;;;16.91;52.97;97864.78;5018338;28;20050;-67
2023/09/15 01:58:58;;;;;;;7.25;3.33;;;15.10;73.00;;;16.90;53.11;97865.78;5020992;28;20045;-67
2023/09/15 02:01:26;;;;;;;5.57;3.25;;;15.00;73.20;;;16.88;53.12;97862.47;5028397;28;20523;-67
2023/09/15 02:03:53;;;;;;;7.05;3.75;;;15.00;73.30;;;16.89;53.21;97864.16;5003811;28;20512;-67
2023/09/15 02:06:23;;;;;;;5.70;3.13;;;15.00;73.50;;;16.87;53.19;97861.66;5017954;28;20057;-67
2023/09/15 02:08:50;;;;;;;5.38;3.30;;;15.00;73.60;;;16.84;53.25;97856.66;5028956;28;20050;-67
2023/09/15 02:11:18;;;;;;;7.03;3.33;;;15.00;73.80;;;16.85;53.33;97860.19;5011171;28;20037;-67
2023/09/15 02:13:46;;;;;;;5.03;3.00;;;15.00;74.00;;;16.83;53.57;97860.38;5025392;27;20049;-67
2023/09/15 02:16:14;;;;;;;4.78;2.70;;;15.00;73.80;;;16.80;53.63;97859.91;5022746;28;20054;-67
2023/09/15 02:18:42;;;;;;;5.55;3.05;;;15.00;74.00;;;16.80;53.67;97865.28;4993920;28;20054;-67
2023/09/15 02:21:10;;;;;;;5.72;3.38;;;15.00;74.20;;;16.78;53.45;97865.47;5035442;28;20412;-67
2023/09/15 02:23:37;;;;;;;5.50;3.83;;;15.00;74.10;;;16.77;53.53;97865.66;5024976;28;20056;-67
2023/09/15 02:26:05;;;;;;;6.63;4.15;;;14.90;74.00;;;16.74;53.72;97859.66;5017176;28;20505;-67
2023/09/15 02:28:33;;;;;;;5.40;3.50;;;14.90;74.20;;;16.72;53.73;97867.09;5017907;28;20436;-67
2023/09/15 02:31:05;;;;;;;3.17;2.67;;;14.90;74.20;;;16.71;53.62;97867.28;5018464;28;20061;-67
2023/09/15 02:33:34;;;;;;;5.32;3.42;;;14.90;74.40;;;16.69;53.68;97864.78;5017452;28;20061;-67
2023/09/15 02:36:03;;;;;;;6.43;4.25;;;14.90;74.20;;;16.67;53.82;97861.47;5021610;28;20049;-67
2023/09/15 02:38:33;;;;;;;6.15;3.53;;;14.90;74.40;;;16.67;53.97;97866.84;5112975;27;20311;-67
2023/09/15 02:41:00;;;;;;;5.97;3.67;;;14.90;74.30;;;16.65;53.84;97870.75;5023679;28;20054;-67
2023/09/15 02:43:28;;;;;;;4.03;3.30;;;14.80;74.50;;;16.63;54.01;97865.56;4992656;28;20054;-67
2023/09/15 02:46:03;;;;;;;6.05;3.78;;;14.80;74.60;;;16.61;54.19;97858.72;5023872;28;20050;-67
2023/09/15 02:48:33;;;;;;;6.53;3.83;;;14.80;75.20;;;16.60;53.87;97863.28;5016027;28;20524;-68
2023/09/15 02:51:01;;;;;;;6.85;3.75;;;14.80;75.10;;;16.60;54.26;97852.53;5018172;28;20045;-67
2023/09/15 02:53:30;;;;;;;4.65;3.45;;;14.80;75.20;;;16.61;54.26;97861.41;5026256;28;20056;-67
2023/09/15 02:56:01;;;;;;;4.95;3.53;;;14.80;75.20;;;16.59;54.24;97855.41;5021173;28;20053;-67
2023/09/15 02:58:33;;;;;;;5.65;3.58;;;14.80;75.40;;;16.56;54.35;97850.44;5003500;28;20045;-67
2023/09/15 03:01:13;;;;;;;6.28;3.80;;;14.70;76.00;;;16.53;54.31;97859.69;5019088;28;20385;-67
2023/09/15 03:03:48;;;;;;;;;;;14.70;76.30;;;16.51;53.91;97854.50;5014976;28;20412;-67
2023/09/15 03:06:16;;;;;;;6.75;3.83;;;14.60;76.90;;;16.54;54.33;97856.00;5015779;28;19922;-67
2023/09/15 03:08:44;;;;;;;6.28;3.45;;;14.60;76.40;;;16.50;54.40;97860.09;5032468;28;20269;-67
2023/09/15 03:11:17;;;;;;;5.70;3.35;;;14.60;76.50;;;16.49;54.70;97863.78;5026616;28;20045;-67
2023/09/15 03:13:46;;;;;;;6.22;3.42;;;14.60;76.70;;;16.47;54.92;97863.16;5015900;28;20053;-67
2023/09/15 03:16:14;;;;;;;8.25;3.63;;;14.70;76.70;;;16.44;54.87;97859.00;5015143;28;20054;-67
2023/09/15 03:18:46;;;;;;;5.47;3.47;;;14.60;76.50;;;16.44;54.85;97859.00;5016037;28;20053;-67
2023/09/15 03:21:17;;;;;;;6.07;3.50;;;14.60;76.50;;;16.43;54.93;97859.19;5034545;28;20045;-67
2023/09/15 03:23:48;;;;;;;5.53;3.67;;;14.60;76.60;;;16.41;54.84;97859.38;5017233;28;20053;-67
2023/09/15 03:26:16;;;;;;;5.20;4.53;;;14.60;76.80;;;16.37;54.91;97863.47;5020718;28;20047;-67
2023/09/15 03:28:47;;;;;;;5.28;3.20;;;14.50;77.00;;;16.36;54.85;97860.97;5017413;28;20046;-66
2023/09/15 03:31:15;;;;;;;5.68;3.67;;;14.50;77.00;;;16.34;55.15;97861.16;5019309;28;20050;-66
2023/09/15 03:33:43;;;;;;;6.18;4.32;;;14.50;77.80;;;16.29;54.92;97856.38;4999057;28;20135;-66
2023/09/15 03:36:12;;;;;;;5.13;3.50;;;14.50;77.30;;;16.26;55.07;97858.63;5016092;28;20050;-66
2023/09/15 03:38:40;;;;;;;5.72;3.38;;;14.40;77.70;;;16.23;55.13;97853.66;5025397;28;20050;-66
2023/09/15 03:41:09;;;;;;;8.07;3.47;;;14.40;77.60;;;16.20;55.42;97848.66;5017997;28;20065;-66
2023/09/15 03:43:37;;;;;;;4.22;3.28;;;14.30;77.80;;;16.19;55.40;97855.88;5026399;28;20068;-68
2023/09/15 03:46:05;;;;;;;6.28;3.38;;;14.30;77.70;;;16.18;55.33;97851.53;5015794;28;20045;-68
2023/09/15 03:48:36;;;;;;;5.50;3.70;;;14.30;77.70;;;16.16;55.55;97853.56;4998810;28;20477;-68
2023/09/15 03:51:05;;;;;;;4.68;3.35;;;14.20;77.60;;;16.14;55.51;97852.94;5003155;28;20424;-68
2023/09/15 03:53:33;;;;;;;5.53;3.40;;;14.30;78.00;;;16.11;55.56;97858.66;5051682;28;20497;-69
2023/09/15 03:56:01;;;;;;;6.13;4.10;;;14.20;78.00;;;16.09;55.68;97850.84;5017391;28;20053;-69
2023/09/15 03:58:30;;;;;;;6.40;3.65;;;14.20;78.10;;;16.07;55.58;97849.34;5001769;28;20057;-68
2023/09/15 04:00:58;;;;;;;5.03;3.70;;;14.20;77.90;;;16.04;55.57;97842.50;4997791;28;20074;-68
2023/09/15 04:03:26;;;;;;;5.53;4.20;;;14.20;78.20;;;16.05;55.80;97848.69;5021983;28;20042;-68
2023/09/15 04:05:54;;;;;;;6.30;3.58;;;14.30;78.00;;;16.07;55.81;97849.34;5094010;28;20049;-69
2023/09/15 04:08:21;;;;;;;5.63;3.78;;;14.30;77.80;;;16.06;55.50;97845.81;5027312;28;20549;-68
2023/09/15 04:10:49;;;;;;;5.53;4.00;;;14.30;77.70;;;16.07;55.65;97850.19;5016421;28;20053;-68
2023/09/15 04:13:17;;;;;;;5.78;4.15;;;14.30;77.70;;;16.09;55.68;97848.16;5015485;28;20501;-68
2023/09/15 04:15:44;;;;;;;6.22;3.63;;;14.30;77.60;;;16.11;55.79;97847.94;5007637;28;20054;-68
2023/09/15 04:18:12;;;;;;;6.15;4.40;;;14.40;77.90;;;16.09;55.88;97842.78;5038518;27;20056;-68
2023/09/15 04:20:40;;;;;;;6.68;4.05;;;14.30;78.30;;;16.08;56.02;97842.97;5021052;28;20416;-68
2023/09/15 04:23:14;;;;;;;6.63;3.83;;;14.30;78.60;;;16.08;56.09;97841.09;5024459;28;20049;-69
2023/09/15 04:25:43;;;;;;;6.47;3.90;;;14.30;79.60;;;16.05;55.67;97838.81;5021865;28;20056;-69
2023/09/15 04:28:13;;;;;;;8.70;4.15;;;14.20;78.60;;;16.04;55.99;97829.06;5022607;27;20512;-68
2023/09/15 04:30:43;;;;;;;6.50;4.13;;;14.20;78.30;;;16.00;55.80;97827.81;5019862;28;20056;-68
2023/09/15 04:33:12;;;;;;;9.80;4.20;;;14.20;78.20;;;15.95;55.56;97830.22;5018653;28;20394;-69
2023/09/15 04:35:40;;;;;;;6.82;4.18;;;14.10;78.10;;;15.90;56.10;97829.97;5018365;28;20072;-68
2023/09/15 04:38:07;;;;;;;7.18;3.80;;;14.00;79.20;;;15.89;56.23;97833.66;5022080;28;20044;-68
2023/09/15 04:40:35;;;;;;;8.02;4.97;;;14.00;79.80;;;15.87;56.57;97835.72;5036665;28;20501;-69
2023/09/15 04:43:04;;;;;;;6.95;4.05;;;14.00;80.40;;;15.85;56.51;97827.84;5018538;28;20049;-69
2023/09/15 04:45:32;;;;;;;6.32;4.38;;;14.00;80.50;;;15.85;56.80;97835.06;5021127;28;20049;-68
2023/09/15 04:48:03;;;;;;;9.05;4.53;;;14.00;80.20;;;15.84;56.69;97831.56;5028733;28;20037;-68
2023/09/15 04:50:31;;;;;;;7.35;4.97;;;14.00;80.50;;;15.83;56.89;97826.38;5036219;28;20052;-69
2023/09/15 04:53:02;;;;;;;9.35;5.45;;;14.00;80.70;;;15.84;56.96;97826.19;5018827;28;20050;-68
2023/09/15 04:55:30;;;;;;;8.88;4.68;;;14.00;80.70;;;15.85;56.77;97830.53;5016836;28;20042;-68
2023/09/15 04:58:00;;;;;;;8.32;4.85;;;14.10;80.50;;;15.88;57.01;97829.34;5029360;28;20461;-68
2023/09/15 05:00:29;;;;;;;6.63;4.85;;;14.10;80.30;;;15.89;56.78;97833.66;5029421;28;20053;-68
2023/09/15 05:02:59;;;;;;;8.32;5.53;;;14.10;80.60;;;15.88;57.14;97824.78;5025391;28;20049;-68
2023/09/15 05:05:28;;;;;;;9.80;4.85;;;14.10;80.60;;;15.86;56.95;97817.97;5039890;27;20511;-68
2023/09/15 05:07:57;;;;;;;7.40;5.10;;;14.10;81.00;;;15.86;56.88;97824.16;5005124;28;20050;-70
2023/09/15 05:10:25;;;;;;;9.82;5.60;;;14.10;80.60;;;15.88;56.97;97827.47;5003832;28;20049;-70
2023/09/15 05:12:53;;;;;;;9.18;5.75;;;14.10;80.40;;;15.87;57.12;97831.16;5055370;28;20512;-70
2023/09/15 05:15:22;;;;;;;9.65;5.47;;;14.10;80.10;;;15.88;56.96;97830.16;5021125;28;20042;-70
2023/09/15 05:17:51;;;;;;;8.70;5.90;;;14.20;80.20;;;15.87;57.32;97823.13;5002238;28;20056;-69
2023/09/15 05:20:18;;;;;;;8.85;5.82;;;14.10;80.50;;;15.87;57.14;97823.13;5031914;28;20481;-67
2023/09/15 05:22:46;;;;;;;9.20;5.45;;;14.10;80.60;;;15.87;57.10;97831.16;5020581;28;20520;-67
2023/09/15 05:25:14;;;;;;;8.35;5.63;;;14.10;80.40;;;15.89;57.17;97831.00;5022382;28;20068;-66
2023/09/15 05:27:42;;;;;;;9.10;6.03;;;14.10;80.60;;;15.90;57.13;97838.03;5003066;28;20499;-66
2023/09/15 05:30:11;;;;;;;10.20;5.68;;;14.00;80.60;;;15.89;57.31;97847.09;5019939;28;20050;-68
2023/09/15 05:32:42;;;;;;;10.50;6.03;;;14.10;81.10;;;15.89;57.50;97844.41;5021070;28;20115;-67
2023/09/15 05:35:10;;;;;;;8.18;5.45;;;14.10;82.20;;;15.88;57.66;97845.44;5021065;28;20041;-68
2023/09/15 05:37:38;;;;;;;10.07;6.32;;;14.10;82.40;;;15.90;57.75;97849.59;5003636;28;20037;-67
2023/09/15 05:40:07;;;;;;;8.15;6.05;;;14.10;82.30;;;15.94;57.72;97850.06;5040962;28;20054;-65
2023/09/15 05:42:35;;;;;;;9.27;6.07;;;14.20;81.80;;;15.99;57.69;97846.78;5023462;28;20125;-65
2023/09/15 05:45:04;;;;;;;8.80;5.50;;;14.30;82.00;;;16.02;57.87;97849.09;5020175;28;20041;-65
2023/09/15 05:47:33;;;;;;;8.43;5.90;;;14.30;81.60;;;16.05;57.86;97851.38;5027889;28;20294;-68
2023/09/15 05:50:04;;;;;;;8.52;5.70;;;14.30;81.30;;;16.07;57.84;97852.03;5018398;28;20056;-66
2023/09/15 05:52:31;;;;;;;8.93;5.32;;;14.40;81.60;;;16.10;57.85;97847.09;5016412;28;20053;-66
2023/09/15 05:54:59;;;;;;;8.98;5.65;;;14.40;81.60;;;16.14;57.62;97850.25;5017891;28;20050;-66
2023/09/15 05:57:27;;;;;;;8.45;5.60;;;14.40;81.50;;;16.16;57.96;97850.88;5020660;28;20049;-66
2023/09/15 05:59:54;;;;;;;9.60;6.03;;;14.40;81.60;;;16.18;57.97;97853.38;5019537;28;20041;-67
2023/09/15 06:02:22;;;;;;;9.88;6.10;;;14.40;81.70;;;16.20;58.00;97857.53;5030387;28;20042;-67
2023/09/15 06:04:50;;;;;;;7.22;5.65;;;14.50;81.80;;;16.24;58.24;97853.44;5017527;28;20090;-67
2023/09/15 06:07:18;;;;;;;7.88;5.68;;;14.60;81.70;;;16.29;57.83;97861.75;5021408;28;20047;-67
2023/09/15 06:09:47;;;;;;;8.20;6.15;;;14.70;81.80;;;16.36;58.10;97866.34;5021262;28;20044;-66
2023/09/15 06:12:15;;;;;;;9.52;6.47;;;14.80;81.50;;;16.40;58.16;97856.88;5016656;28;20505;-66
2023/09/15 06:14:43;;;;;;;8.20;5.55;;;14.80;81.50;;;16.44;58.27;97860.84;5015600;28;20046;-67
2023/09/15 06:17:10;;;;;;;8.80;5.55;;;14.80;81.60;;;16.48;58.33;97859.47;5020555;28;20037;-67
2023/09/15 06:19:38;;;;;;;9.02;6.10;;;14.90;81.50;;;16.52;58.11;97866.94;5020543;28;20389;-67
2023/09/15 06:22:05;;;;;;;7.07;5.97;;;14.90;81.10;;;16.57;58.31;97862.81;5017609;28;20068;-67
2023/09/15 06:24:33;;;;;;;6.85;4.95;;;15.00;81.00;;;16.61;58.29;97866.78;5016753;28;20042;-67
2023/09/15 06:27:01;;;;;;;8.35;5.60;;;15.10;81.00;;;16.64;58.43;97859.16;5018705;28;20038;-67
2023/09/15 06:29:28;;;;;;;8.68;4.95;;;15.20;80.60;;;16.68;58.23;97862.31;5002233;28;20512;-67
2023/09/15 06:31:56;;;;;;;9.68;5.57;;;15.20;80.60;;;16.71;58.35;97865.44;5019108;28;20037;-67
2023/09/15 06:34:24;;;;;;;9.45;5.70;;;15.20;80.80;;;16.73;58.34;97863.38;5016141;28;20052;-67
2023/09/15 06:36:51;;;;;;;9.70;6.43;;;15.20;80.80;;;16.74;58.42;97856.97;5017216;28;20046;-67
2023/09/15 06:39:23;;;;;;;11.95;6.25;;;15.20;81.00;;;16.76;58.28;97862.16;5019392;28;20036;-67
2023/09/15 06:41:51;;;;;;;10.80;5.57;;;15.20;81.20;;;16.79;58.20;97859.09;5019677;28;20042;-67
2023/09/15 06:44:23;;;;;;;11.48;7.28;;;15.20;81.00;;;16.83;58.15;97860.38;5020625;28;20131;-67
2023/09/15 06:46:51;;;;;;;10.07;5.95;;;15.20;80.70;;;16.86;58.31;97867.22;5018808;28;20041;-67
2023/09/15 06:49:21;;;;;;;10.20;6.95;;;15.20;80.90;;;16.89;58.13;97861.47;5018530;28;20037;-67
2023/09/15 06:51:49;;;;;;;8.63;5.78;;;15.30;81.00;;;16.91;58.08;97864.78;5020023;28;20045;-68
2023/09/15 06:54:18;;;;;;;11.18;6.70;;;15.30;80.80;;;16.93;58.24;97862.72;5016150;28;20050;-67
2023/09/15 06:56:45;;;;;;;7.07;5.47;;;15.30;81.10;;;16.96;58.06;97867.69;5015110;28;20046;-68
2023/09/15 06:59:13;;;;;;;11.85;5.97;;;15.40;80.90;;;17.00;58.34;97870.81;5019493;28;20037;-68
2023/09/15 07:01:41;;;;;;;7.70;5.15;;;15.40;80.70;;;17.03;58.07;97860.50;5035839;28;20451;-67
2023/09/15 07:04:12;;;;;;;10.48;6.85;;;15.50;80.70;;;17.06;58.33;97859.28;5016837;28;20060;-68
2023/09/15 07:06:40;;;;;;;8.57;5.72;;;15.60;80.30;;;17.11;58.15;97859.53;5014497;28;20057;-67
2023/09/15 07:09:08;;;;;;;10.30;6.10;;;15.70;80.10;;;17.15;58.51;97863.47;5018295;28;20493;-67
2023/09/15 07:11:35;;;;;;;11.45;6.70;;;15.70;80.20;;;17.20;58.28;97861.03;5019787;28;20044;-67
2023/09/15 07:14:03;;;;;;;11.77;6.90;;;15.80;80.10;;;17.25;58.46;97858.59;5017357;28;20046;-67
2023/09/15 07:16:31;;;;;;;9.55;6.07;;;15.90;80.20;;;17.32;58.22;97856.75;5016258;28;20038;-67
2023/09/15 07:18:59;;;;;;;11.07;6.45;;;15.90;80.00;;;17.37;58.30;97850.78;5016796;28;20278;-67
2023/09/15 07:21:27;;;;;;;12.52;6.97;;;16.00;79.90;;;17.42;58.40;97848.31;5018464;28;20041;-67
2023/09/15 07:23:55;;;;;;;12.82;7.00;;;16.00;79.70;;;17.46;58.25;97856.81;5018767;28;20527;-67
2023/09/15 07:26:24;;;;;;;11.55;6.88;;;16.00;79.70;;;17.49;58.36;97854.56;5015852;28;20123;-67
2023/09/15 07:28:55;;;;;;;9.30;5.88;;;16.10;79.80;;;17.56;58.29;97859.13;5015967;28;20046;-67
2023/09/15 07:31:23;;;;;;;11.98;6.85;;;16.10;79.70;;;17.60;58.00;97852.31;5027256;28;20049;-67
2023/09/15 07:33:51;;;;;;;13.13;7.25;;;16.20;79.60;;;17.65;58.07;97847.16;5019037;28;20042;-67
2023/09/15 07:36:19;;;;;;;14.07;6.90;;;16.20;79.50;;;17.69;58.11;97853.81;5034228;28;20052;-67
2023/09/15 07:38:46;;;;;;;14.35;6.90;;;16.30;79.30;;;17.73;58.28;97846.97;5018283;28;20063;-67
2023/09/15 07:41:14;;;;;;;22.92;7.50;;;16.40;79.40;;;17.75;58.13;97858.38;5015287;28;20065;-67
2023/09/15 07:43:43;;;;;;;22.67;7.80;;;16.40;79.60;;;17.80;58.15;97858.59;5030986;28;20428;-67
2023/09/15 07:46:13;;;;;;;22.30;7.88;;;16.40;79.50;;;17.84;58.27;97854.50;5017996;28;20516;-66
2023/09/15 07:48:43;;;;;;;21.13;6.88;;;16.50;79.40;;;17.91;58.06;97843.75;5018107;28;20409;-67
2023/09/15 07:51:14;;;;;;;18.58;7.07;;;16.60;80.00;;;17.96;58.22;97845.84;5018026;28;20060;-67
2023/09/15 07:53:44;;;;;;;12.20;6.72;;;16.60;79.30;;;17.97;58.27;97844.78;5017772;28;20520;-67
2023/09/15 07:56:12;;;;;;;14.75;7.55;;;16.70;79.50;;;18.02;58.34;97845.84;5034803;28;20060;-66
2023/09/15 07:58:40;;;;;;;16.85;6.55;;;16.70;79.30;;;18.06;58.44;97848.97;5022522;28;20508;-66
2023/09/15 08:01:08;;;;;;;19.20;7.22;;;16.80;79.10;;;18.13;57.99;97852.50;5020810;28;20041;-66
2023/09/15 08:03:36;;;;;;;12.77;6.15;;;16.90;79.10;;;18.18;58.13;97850.00;5018616;28;20065;-66
2023/09/15 08:06:03;;;;;;;12.38;6.95;;;16.90;78.90;;;18.24;58.17;97853.75;5019051;28;20063;-67
2023/09/15 08:08:31;;;;;;;13.25;6.68;;;16.90;78.80;;;18.29;58.22;97848.59;5021273;28;20064;-66
2023/09/15 08:10:59;;;;;;;11.15;6.97;;;17.10;78.70;;;18.35;58.17;97846.94;5020488;28;20053;-66
2023/09/15 08:13:27;;;;;;;9.90;6.03;;;17.10;78.40;;;18.40;58.06;97850.69;5017234;28;20045;-66
2023/09/15 08:15:55;;;;;;;9.05;6.35;;;17.20;78.10;;;18.45;58.01;97848.19;5018947;28;20052;-66
2023/09/15 08:18:23;;;;;;;9.65;5.63;;;17.20;78.00;;;18.49;57.77;97846.75;5020831;28;20060;-66
2023/09/15 08:20:50;;;;;;;12.50;6.25;;;17.20;77.70;;;18.54;57.85;97838.03;5022068;28;20056;-66
2023/09/15 08:23:18;;;;;;;11.00;6.43;;;17.30;77.90;;;18.58;57.77;97841.97;5020659;28;20420;-65
2023/09/15 08:25:46;;;;;;;15.95;5.90;;;17.30;77.70;;;18.64;57.71;97843.00;5020828;28;20041;-65
2023/09/15 08:28:14;;;;;;;12.57;6.50;;;17.40;77.40;;;18.67;57.70;97837.22;5019812;28;20041;-65
2023/09/15 08:30:42;;;;;;;10.35;6.85;;;17.40;77.30;;;18.72;57.80;97841.97;5025956;28;20416;-65
2023/09/15 08:33:09;;;;;;;11.07;6.78;;;17.50;77.50;;;18.77;57.81;97834.09;5021854;28;20436;-65
2023/09/15 08:35:37;;;;;;;10.25;6.97;;;17.50;77.40;;;18.81;57.99;97832.66;5021650;28;20144;-65
2023/09/15 08:38:05;;;;;;;9.27;6.00;;;17.60;77.00;;;18.85;57.60;97840.13;5019790;28;20049;-65
2023/09/15 08:40:48;;;;;;;10.95;6.97;;;17.60;77.00;;;18.90;57.69;97828.69;5018190;28;20505;-65
2023/09/15 08:43:16;;;;;;;9.23;6.85;;;17.70;77.00;;;18.98;57.57;97833.03;5019369;28;20520;-65
2023/09/15 08:45:45;;;;;;;10.25;7.45;;;17.80;76.80;;;19.03;57.53;97834.06;5021659;28;20053;-65
2023/09/15 08:48:22;;;;;;;10.05;7.35;;;17.90;76.70;;;19.10;57.47;97831.38;5019954;28;20045;-65
2023/09/15 08:50:52;;;;;;;10.02;6.93;;;18.00;76.40;;;19.15;57.55;97828.84;5017060;28;20513;-65
2023/09/15 08:53:20;;;;;;;13.65;6.57;;;18.00;76.30;;;19.21;57.57;97833.41;5020533;28;20042;-65
2023/09/15 08:55:48;;;;;;;12.02;5.80;;;18.10;76.20;;;19.26;57.32;97830.88;5020645;28;20057;-65
2023/09/15 08:58:16;;;;;;;11.93;7.30;;;18.10;76.00;;;19.34;57.26;97829.00;5019579;28;20050;-65
2023/09/15 09:00:44;;;;;;;8.27;6.45;;;18.20;75.80;;;19.38;57.51;97831.06;5017236;28;20042;-65
2023/09/15 09:03:15;;;;;;;9.93;6.03;;;18.30;75.80;;;19.44;57.24;97827.53;5015083;28;20042;-65
2023/09/15 09:05:46;;;;;;;11.50;6.97;;;18.40;75.60;;;19.52;57.02;97833.72;5019048;28;20400;-65
2023/09/15 09:08:16;;;;;;;9.02;6.35;;;18.40;75.50;;;19.58;57.11;97824.75;5018707;28;20041;-65
2023/09/15 09:10:45;;;;;;;8.38;6.80;;;18.50;75.50;;;19.63;56.97;97819.53;5016827;28;20493;-65
2023/09/15 09:13:12;;;;;;;8.18;6.57;;;18.50;75.10;;;19.67;56.70;97818.88;5019135;28;20050;-65
2023/09/15 09:15:49;;;;;;;9.27;6.57;;;18.60;75.00;;;19.77;57.15;97825.75;5020154;28;20052;-65
2023/09/15 09:18:18;;;;;;;9.18;6.93;;;18.70;75.40;;;19.82;56.67;97823.22;5018356;28;20049;-65
2023/09/15 09:20:49;;;;;;;9.48;6.85;;;18.70;74.60;;;19.85;56.70;97814.66;5016822;28;20042;-65
2023/09/15 09:23:18;;;;;;;7.65;5.97;;;18.80;74.40;;;19.92;56.65;97814.66;5018411;28;20053;-65
2023/09/15 09:25:46;;;;;;;7.57;5.65;;;18.80;74.20;;;19.96;56.50;97816.69;5019605;28;20053;-65
2023/09/15 09:28:15;;;;;;;7.93;5.88;;;18.90;74.10;;;20.02;56.61;97815.81;5010171;28;20048;-65
2023/09/15 09:30:45;;;;;;;9.95;6.93;;;18.90;73.90;;;20.06;56.07;97811.66;5017813;28;20042;-65
2023/09/15 09:33:12;;;;;;;8.35;5.82;;;19.00;73.60;;;20.14;55.98;97812.41;5018592;28;20038;-65
2023/09/15 09:35:40;;;;;;;8.30;6.72;;;19.00;73.20;;;20.17;55.90;97812.81;5020879;28;20064;-65
2023/09/15 09:38:08;;;;;;;10.82;6.72;;;19.10;73.10;;;20.21;55.80;97807.81;5019445;28;20050;-65
2023/09/15 09:40:36;;;;;;;14.15;6.50;;;19.10;72.90;;;20.28;55.92;97811.31;5017412;28;20045;-65
2023/09/15 09:43:04;;;;;;;8.70;5.68;;;19.20;73.00;;;20.34;55.77;97810.41;5016416;28;20061;-65
2023/09/15 09:45:31;;;;;;;12.13;5.85;;;19.20;72.70;;;20.39;55.68;97807.03;5015838;28;20057;-65
2023/09/15 09:48:00;;;;;;;7.88;6.15;;;19.30;72.50;;;20.42;55.45;97802.03;5016316;28;20042;-65
2023/09/15 09:50:28;;;;;;;10.18;6.20;;;19.40;72.60;;;20.49;55.33;97804.69;5019245;28;20060;-65
2023/09/15 09:52:56;;;;;;;8.80;6.30;;;19.40;72.50;;;20.53;55.44;97802.34;5019317;28;20038;-65
2023/09/15 09:55:25;;;;;;;9.20;6.22;;;19.50;72.30;;;20.55;55.03;97801.09;5017979;28;20053;-65
2023/09/15 09:57:53;;;;;;;8.20;5.70;;;19.50;71.80;;;20.58;55.25;97797.94;5016217;28;20046;-65
2023/09/15 10:00:22;;;;;;;8.15;6.35;;;19.50;72.20;;;20.63;55.11;97800.03;5018946;28;20417;-65
2023/09/15 10:02:50;;;;;;;10.45;6.38;;;19.60;71.80;;;20.67;55.46;97790.41;5020536;28;20034;-65
2023/09/15 10:05:18;;;;;;;7.82;6.13;;;19.60;72.10;;;20.72;55.27;97795.97;5018808;28;20402;-65
2023/09/15 10:07:47;;;;;;;6.93;4.95;;;19.70;72.00;;;20.76;55.05;97790.94;5015511;28;20053;-65
2023/09/15 10:10:15;;;;;;;8.02;6.03;;;19.70;71.80;;;20.81;54.93;97794.63;5016500;28;20054;-65
2023/09/15 10:12:43;;;;;;;10.40;7.10;;;19.80;71.40;;;20.86;54.76;97785.88;5019398;28;20416;-65
2023/09/15 10:15:11;;;;;;;8.80;6.78;;;19.80;71.30;;;20.92;54.75;97781.41;5017049;28;20050;-65
2023/09/15 10:17:39;;;;;;;9.27;6.22;;;19.80;71.00;;;20.96;54.95;97780.75;5016855;28;20050;-65
2023/09/15 10:20:09;;;;;;;6.90;5.90;;;19.90;71.20;;;21.03;54.65;97781.50;5015808;28;20461;-64
2023/09/15 10:22:37;;;;;;;8.63;6.40;;;20.00;70.80;;;21.11;54.46;97783.09;5015857;28;20429;-64
2023/09/15 10:25:06;;;;;;;9.40;6.32;;;20.10;70.80;;;21.16;54.65;97777.81;5016450;28;20034;-65
2023/09/15 10:27:33;;;;;;;8.73;5.78;;;20.20;70.50;;;21.23;54.43;97775.06;5020050;28;20045;-64